Time;durP1;ratioP1;P1;durP2;ratioP2;P2;SDS_P1;SDS_P2;PMS_P1;PMS_P2;Temp;Humidity;BMP_temperature;BMP_pressure;BME280_temperature;BME280_humidity;BME280_pressure;Samples;Min_cycle;Max_cycle;Signal;HPM_P1;HPM_P2
2024/02/28 00:04:44;;;;;;;32.17;17.92;;;;;;;6.78;100.00;97309.38;6110842;22;20422;31
2024/02/28 00:10:00;;;;;;;34.58;20.13;;;;;;;6.76;100.00;97311.47;5536486;22;20419;-88
2024/02/28 00:12:26;;;;;;;32.50;18.80;;;;;;;6.75;100.00;97310.66;5055613;28;20403;-88
2024/02/28 00:14:53;;;;;;;33.05;18.25;;;;;;;6.74;100.00;97309.06;5594516;22;20423;-88
2024/02/28 02:36:04;;;;;;;34.13;20.02;;;;;;;6.07;100.00;97376.81;3051661;22;21947;31
2024/02/28 02:38:30;;;;;;;34.20;18.73;;;;;;;6.07;100.00;97386.50;5227713;22;20413;-87
2024/02/28 02:40:57;;;;;;;33.85;18.02;;;;;;;6.06;100.00;97380.44;5058875;28;20494;-87
2024/02/28 02:43:23;;;;;;;33.43;18.63;;;;;;;6.07;100.00;97383.88;5174253;22;20469;-87
2024/02/28 02:48:25;;;;;;;37.23;20.03;;;;;;;6.06;100.00;97390.16;5767919;22;20397;-88
2024/02/28 03:16:42;;;;;;;39.22;22.10;;;;;;;5.96;100.00;97432.72;5014645;28;20419;-79
2024/02/28 03:19:09;;;;;;;37.88;20.98;;;;;;;5.94;100.00;97431.34;5016808;28;20393;-82
2024/02/28 03:21:35;;;;;;;38.75;20.52;;;;;;;5.94;100.00;97436.59;5016852;28;20440;-80
2024/02/28 03:24:02;;;;;;;32.67;19.38;;;;;;;5.95;100.00;97438.19;5017335;28;20433;-82
2024/02/28 03:26:28;;;;;;;31.23;17.53;;;;;;;5.94;100.00;97442.63;5016961;28;20467;-83
2024/02/28 03:28:54;;;;;;;30.15;17.23;;;;;;;5.95;100.00;97448.69;5018147;28;20408;-84
2024/02/28 03:31:20;;;;;;;35.92;18.45;;;;;;;5.97;100.00;97444.03;5018892;28;20948;-83
2024/02/28 03:33:47;;;;;;;36.75;19.20;;;;;;;5.97;100.00;97454.53;5017937;28;20409;-83
2024/02/28 03:36:14;;;;;;;35.40;18.42;;;;;;;5.97;100.00;97455.34;5018107;28;20409;-83
2024/02/28 03:38:40;;;;;;;32.88;18.23;;;;;;;5.97;100.00;97465.03;5017819;28;20401;-81
2024/02/28 03:41:06;;;;;;;31.33;17.53;;;;;;;5.96;100.00;97461.63;5017684;28;20440;-81
2024/02/28 03:43:33;;;;;;;39.65;20.70;;;;;;;5.96;100.00;97464.25;5018368;28;20400;-83
2024/02/28 03:45:59;;;;;;;32.10;17.67;;;;;;;5.94;100.00;97471.53;5017954;28;20782;-83
2024/02/28 03:48:25;;;;;;;41.85;22.67;;;;;;;5.96;100.00;97466.06;5018869;28;20762;-84
2024/02/28 03:50:52;;;;;;;35.40;19.75;;;;;;;5.94;100.00;97473.38;5019157;28;20822;-84
2024/02/28 03:53:19;;;;;;;31.47;17.23;;;;;;;5.94;100.00;97473.38;5017921;28;20508;-83
2024/02/28 03:55:45;;;;;;;42.65;21.65;;;;;;;5.93;100.00;97479.66;5017031;28;20415;-82
2024/02/28 03:58:11;;;;;;;34.33;19.30;;;;;;;5.90;100.00;97478.25;5016592;28;21002;-82
2024/02/28 04:00:37;;;;;;;43.63;22.63;;;;;;;5.92;100.00;97478.03;5020194;28;20392;-81
2024/02/28 04:03:05;;;;;;;36.65;19.98;;;;;;;5.90;100.00;97485.34;5028347;28;20412;-83
2024/02/28 04:05:31;;;;;;;38.40;20.33;;;;;;;5.89;100.00;97475.84;5018361;28;20885;-83
2024/02/28 04:07:58;;;;;;;34.05;18.60;;;;;;;5.88;100.00;97485.53;5018743;28;20802;-82
2024/02/28 04:10:24;;;;;;;37.85;20.90;;;;;;;5.88;100.00;97488.19;5017034;28;20404;-82
2024/02/28 04:12:50;;;;;;;40.15;21.50;;;;;;;5.88;100.00;97490.81;5017045;28;20463;-80
2024/02/28 04:15:17;;;;;;;38.72;20.40;;;;;;;5.86;100.00;97484.94;5016114;28;20416;-81
2024/02/28 04:17:43;;;;;;;38.10;20.70;;;;;;;5.86;100.00;97492.03;5016805;28;20916;-82
2024/02/28 04:20:10;;;;;;;40.08;21.25;;;;;;;5.84;100.00;97492.25;5016401;28;20415;-84
2024/02/28 04:22:36;;;;;;;41.77;21.53;;;;;;;5.83;100.00;97490.63;5016528;28;20405;-87
2024/02/28 04:25:04;;;;;;;40.42;20.63;;;;;;;5.82;100.00;97499.53;5015535;28;20641;-86
2024/02/28 04:27:30;;;;;;;41.15;21.00;;;;;;;5.81;100.00;97497.91;5016260;28;20479;-84
2024/02/28 04:29:57;;;;;;;35.65;20.45;;;;;;;5.80;100.00;97496.31;5016505;28;20837;-83
2024/02/28 04:32:23;;;;;;;43.00;22.20;;;;;;;5.80;100.00;97496.31;5016240;28;20475;-85
2024/02/28 04:34:49;;;;;;;39.35;20.52;;;;;;;5.79;100.00;97490.25;5016674;28;20404;-81
2024/02/28 04:37:15;;;;;;;41.15;21.67;;;;;;;5.79;100.00;97499.94;5015527;28;20401;-81
2024/02/28 04:39:41;;;;;;;39.88;21.95;;;;;;;5.77;100.00;97494.94;5016183;28;20401;-81
2024/02/28 04:42:09;;;;;;;37.22;19.35;;;;;;;5.76;100.00;97500.41;5016575;28;20412;-82
2024/02/28 04:44:35;;;;;;;34.35;18.85;;;;;;;5.74;100.00;97505.88;5015587;28;20886;-85
2024/02/28 04:47:02;;;;;;;30.83;17.63;;;;;;;5.75;100.00;97504.84;5017973;28;20759;-85
2024/02/28 04:49:28;;;;;;;34.25;19.10;;;;;;;5.75;100.00;97507.47;5015614;28;20528;-83
2024/02/28 04:51:54;;;;;;;37.60;19.67;;;;;;;5.76;100.00;97513.53;5018826;28;20410;-88
2024/02/28 04:54:21;;;;;;;43.83;22.92;;;;;;;5.78;100.00;97514.13;5650793;22;20382;-88
2024/02/28 04:56:47;;;;;;;39.60;21.02;;;;;;;5.73;100.00;97504.25;5024470;28;20396;-88
2024/02/28 05:01:51;;;;;;;41.70;23.05;;;;;;;5.72;100.00;97510.53;5324194;22;20437;-88
2024/02/28 05:04:21;;;;;;;38.53;21.67;;;;;;;5.69;100.00;97508.34;5845178;22;20396;-87
2024/02/28 05:06:48;;;;;;;41.07;23.03;;;;;;;5.67;100.00;97510.38;5655754;22;20448;-86
2024/02/28 05:11:48;;;;;;;36.65;20.55;;;;;;;5.65;100.00;97515.03;5033327;28;20428;-86
2024/02/28 05:16:52;;;;;;;37.10;20.95;;;;;;;5.62;100.00;97510.25;5303152;22;20456;-86
2024/02/28 05:22:40;;;;;;;33.63;19.70;;;;;;;5.61;100.00;97523.56;5594906;22;20396;-83
2024/02/28 05:35:31;;;;;;;42.55;23.50;;;;;;;5.59;100.00;97523.78;5502614;22;20449;-85
2024/02/28 05:37:57;;;;;;;44.38;23.27;;;;;;;5.56;100.00;97523.44;4996221;28;20417;-85
2024/02/28 05:40:24;;;;;;;39.58;21.17;;;;;;;5.55;100.00;97524.44;4991590;28;20474;-88
2024/02/28 05:42:50;;;;;;;41.13;21.92;;;;;;;5.53;100.00;97529.91;5002252;28;20421;-86
2024/02/28 05:45:16;;;;;;;38.35;21.50;;;;;;;5.50;100.00;97543.44;5013458;28;20430;-84
2024/02/28 05:47:42;;;;;;;38.88;21.67;;;;;;;5.49;100.00;97535.81;5182206;22;20479;-87
2024/02/28 05:50:10;;;;;;;33.72;19.17;;;;;;;5.49;100.00;97546.31;5238409;22;20428;-85
2024/02/28 05:52:37;;;;;;;37.70;20.60;;;;;;;5.48;100.00;97549.94;5029398;28;20413;-86
2024/02/28 05:55:04;;;;;;;36.90;20.88;;;;;;;5.48;100.00;97557.81;5018629;28;20400;-81
2024/02/28 05:57:30;;;;;;;42.93;21.60;;;;;;;5.48;100.00;97560.44;5012998;28;20396;-83
2024/02/28 05:59:59;;;;;;;45.78;24.42;;;;;;;5.46;100.00;97560.66;5012377;28;20888;-80
2024/02/28 06:02:25;;;;;;;43.85;23.95;;;;;;;5.43;100.00;97567.13;5013362;28;20412;-88
2024/02/28 06:04:52;;;;;;;37.80;22.02;;;;;;;5.39;100.00;97568.59;5022792;28;20420;-86
2024/02/28 06:07:18;;;;;;;35.27;20.90;;;;;;;5.38;100.00;97566.16;5023133;28;20393;-86
2024/02/28 06:09:46;;;;;;;37.03;20.55;;;;;;;5.38;100.00;97572.22;5022916;28;20410;-86
2024/02/28 06:12:12;;;;;;;40.80;22.45;;;;;;;5.36;100.00;97574.25;5003522;28;20409;-84
2024/02/28 06:14:38;;;;;;;39.85;20.83;;;;;;;5.37;100.00;97583.75;5018931;28;20454;-81
2024/02/28 06:17:05;;;;;;;37.03;21.17;;;;;;;5.37;100.00;97583.75;5019575;28;20452;-87
2024/02/28 06:19:31;;;;;;;34.38;20.73;;;;;;;5.37;100.00;97586.38;5020703;28;20399;-84
2024/02/28 06:21:57;;;;;;;37.83;21.02;;;;;;;5.36;100.00;97587.38;5020541;28;20413;-84
2024/02/28 06:24:23;;;;;;;37.67;21.65;;;;;;;5.36;100.00;97589.19;5021246;28;20397;-85
2024/02/28 06:26:50;;;;;;;41.30;22.70;;;;;;;5.36;100.00;97600.50;5020268;28;20428;-86
2024/02/28 06:29:17;;;;;;;42.00;21.45;;;;;;;5.35;100.00;97598.09;5021569;28;20404;-85
2024/02/28 06:31:43;;;;;;;44.65;23.55;;;;;;;5.37;100.00;97598.69;5022771;28;20405;-86
2024/02/28 06:34:09;;;;;;;45.15;25.27;;;;;;;5.39;100.00;97599.28;5020103;28;20409;-83
2024/02/28 06:36:35;;;;;;;37.50;22.33;;;;;;;5.37;100.00;97601.31;5020040;28;20821;-82
2024/02/28 06:39:01;;;;;;;44.15;22.60;;;;;;;5.38;100.00;97606.34;5019489;28;20397;-83
2024/02/28 06:41:27;;;;;;;40.55;21.80;;;;;;;5.38;100.00;97614.22;5020737;28;20405;-84
2024/02/28 06:43:55;;;;;;;38.70;21.85;;;;;;;5.40;100.00;97608.78;5023900;28;20762;-85
2024/02/28 06:46:21;;;;;;;36.50;20.98;;;;;;;5.41;100.00;97611.16;5024463;28;20420;-87
2024/02/28 06:48:47;;;;;;;36.80;20.23;;;;;;;5.43;100.00;97624.88;5027380;28;20436;-88
2024/02/28 06:51:15;;;;;;;34.33;19.50;;;;;;;5.47;100.00;97616.59;5029354;28;20440;-89
2024/02/28 06:53:41;;;;;;;34.30;19.60;;;;;;;5.50;100.00;97624.03;5029481;28;20425;-88
2024/02/28 06:56:08;;;;;;;37.33;21.10;;;;;;;5.52;100.00;97629.88;5033856;28;20389;-86
2024/02/28 06:58:34;;;;;;;41.53;22.38;;;;;;;5.53;100.00;97623.63;5036058;28;20436;-87
2024/02/28 07:01:02;;;;;;;38.53;21.42;;;;;;;5.55;100.00;97627.66;5031620;28;20460;-86
2024/02/28 07:03:28;;;;;;;33.17;19.13;;;;;;;5.56;100.00;97624.00;5025523;28;20381;-87
2024/02/28 07:05:54;;;;;;;29.55;17.60;;;;;;;5.57;100.00;97633.47;5022847;28;20413;-85
2024/02/28 07:08:21;;;;;;;28.98;16.90;;;;;;;5.61;100.00;97625.97;5017036;28;20416;-84
2024/02/28 07:10:49;;;;;;;35.90;20.20;;;;;;;5.64;100.00;97631.59;5109158;22;20505;-85
2024/02/28 07:13:15;;;;;;;41.05;23.42;;;;;;;5.68;100.00;97634.63;5260037;22;20457;-88
2024/02/28 07:15:41;;;;;;;43.47;24.63;;;;;;;5.69;100.00;97636.22;5099926;22;20527;-86
2024/02/28 07:18:09;;;;;;;40.15;22.92;;;;;;;5.63;100.00;97640.53;5032294;28;20439;-85
2024/02/28 07:20:35;;;;;;;39.57;22.40;;;;;;;5.65;100.00;97651.59;5035891;28;20391;-86
2024/02/28 07:23:01;;;;;;;37.42;20.90;;;;;;;5.65;100.00;97651.59;5026133;28;20797;-86
2024/02/28 07:25:28;;;;;;;36.20;20.60;;;;;;;5.66;100.00;97661.09;5038269;28;20811;-85
2024/02/28 07:27:56;;;;;;;32.40;18.67;;;;;;;5.69;100.00;97662.50;5038889;28;20402;-85
2024/02/28 07:30:22;;;;;;;31.80;17.60;;;;;;;5.72;100.00;97673.34;5034943;28;20401;-84
2024/02/28 07:32:48;;;;;;;31.10;17.70;;;;;;;5.75;100.00;97666.88;5021430;28;20439;-84
2024/02/28 07:35:16;;;;;;;32.08;17.30;;;;;;;5.78;100.00;97663.84;5024415;28;20408;-85
2024/02/28 07:37:42;;;;;;;26.38;15.98;;;;;;;5.81;100.00;97674.72;5020299;28;20393;-86
2024/02/28 07:40:09;;;;;;;30.48;16.63;;;;;;;5.84;100.00;97676.13;5043023;28;20479;-85
2024/02/28 07:42:35;;;;;;;31.53;18.90;;;;;;;5.87;100.00;97680.13;5043683;28;20403;-84
2024/02/28 07:45:02;;;;;;;34.55;20.00;;;;;;;5.89;100.00;97683.38;5049276;28;20415;-86
2024/02/28 07:47:28;;;;;;;35.08;20.30;;;;;;;5.90;100.00;97691.06;5045149;28;20442;-85
2024/02/28 07:49:56;;;;;;;35.22;20.30;;;;;;;5.91;100.00;97690.03;5047765;28;20403;-85
2024/02/28 07:52:24;;;;;;;33.70;19.88;;;;;;;5.94;100.00;97701.97;5045184;28;20414;-86
2024/02/28 07:54:50;;;;;;;35.58;20.55;;;;;;;5.95;100.00;97696.47;5042824;28;20803;-84
2024/02/28 07:57:17;;;;;;;35.38;20.98;;;;;;;5.95;100.00;97693.84;5044442;28;20427;-85
2024/02/28 07:59:43;;;;;;;34.80;19.45;;;;;;;5.96;100.00;97703.34;5037405;28;20409;-85
2024/02/28 08:02:12;;;;;;;35.20;20.38;;;;;;;5.99;100.00;97702.91;5038608;28;20403;-79
2024/02/28 08:04:39;;;;;;;35.28;19.98;;;;;;;6.03;100.00;97711.16;5032989;28;20510;-82
2024/02/28 08:07:05;;;;;;;49.42;26.58;;;;;;;6.12;100.00;97694.91;5032948;28;20418;-81
2024/02/28 08:09:32;;;;;;;41.93;23.43;;;;;;;6.10;100.00;97694.31;5033437;28;20892;-83
2024/02/28 08:11:58;;;;;;;37.53;21.95;;;;;;;6.03;100.00;97701.47;5030918;28;20464;-83
2024/02/28 08:14:25;;;;;;;37.10;20.58;;;;;;;6.03;100.00;97709.34;5032703;28;20409;-82
2024/02/28 08:16:51;;;;;;;32.60;19.00;;;;;;;6.04;100.00;97707.53;5022974;28;20398;-83
2024/02/28 08:19:17;;;;;;;31.40;18.63;;;;;;;6.08;100.00;97709.53;5064372;22;20430;-84
2024/02/28 08:21:44;;;;;;;36.72;21.50;;;;;;;6.05;100.00;97704.69;5014085;28;20447;-83
2024/02/28 08:24:10;;;;;;;32.40;19.58;;;;;;;6.09;100.00;97707.69;5039088;28;20478;-82
2024/02/28 08:26:38;;;;;;;32.30;18.77;;;;;;;6.14;100.00;97705.22;5286790;22;20432;-84
2024/02/28 08:29:05;;;;;;;30.75;18.50;;;;;;;6.22;100.00;97708.41;5036240;28;20388;-84
2024/02/28 08:31:31;;;;;;;35.10;19.52;;;;;;;6.29;100.00;97710.16;5026092;28;20417;-84
2024/02/28 08:33:58;;;;;;;29.92;18.00;;;;;;;6.35;100.00;97709.28;4997672;28;20871;-84
2024/02/28 08:36:24;;;;;;;28.65;17.00;;;;;;;6.38;100.00;97717.56;5008755;28;20764;-83
2024/02/28 08:38:51;;;;;;;30.27;17.55;;;;;;;6.43;100.00;97711.66;5017737;28;20428;-85
2024/02/28 08:41:18;;;;;;;36.30;21.05;;;;;;;6.43;100.00;97717.72;5015305;28;20409;-85
2024/02/28 08:43:45;;;;;;;34.97;20.33;;;;;;;6.42;100.00;97715.28;5018129;28;20408;-81
2024/02/28 08:46:15;;;;;;;31.33;18.45;;;;;;;6.41;100.00;97714.47;5016074;28;20504;-79
2024/02/28 08:48:43;;;;;;;31.17;18.35;;;;;;;6.40;100.00;97723.38;5014409;28;20403;-80
2024/02/28 08:51:09;;;;;;;35.40;20.85;;;;;;;6.39;100.00;97727.03;5004112;28;20450;-79
2024/02/28 08:53:35;;;;;;;32.13;18.70;;;;;;;6.39;100.00;97732.28;5014994;28;20458;-82
2024/02/28 08:56:01;;;;;;;42.38;22.50;;;;;;;6.40;100.00;97730.47;5014390;28;20416;-80
2024/02/28 08:58:27;;;;;;;38.77;21.60;;;;;;;6.40;100.00;97725.22;5015838;28;20482;-79
2024/02/28 09:00:55;;;;;;;37.35;20.67;;;;;;;6.37;100.00;97726.47;5018563;28;20401;-82
2024/02/28 09:03:22;;;;;;;40.40;21.83;;;;;;;6.36;100.00;97738.00;5020181;28;20392;-81
2024/02/28 09:05:48;;;;;;;39.67;21.83;;;;;;;6.36;100.00;97737.19;5016494;28;20983;-82
2024/02/28 09:08:14;;;;;;;37.58;21.52;;;;;;;6.36;100.00;97734.56;5015736;28;20420;-80
2024/02/28 09:10:40;;;;;;;38.60;21.77;;;;;;;6.35;100.00;97736.38;5017062;28;20486;-81
2024/02/28 09:13:07;;;;;;;37.92;21.13;;;;;;;6.34;100.00;97741.84;5015698;28;20407;-80
2024/02/28 09:15:34;;;;;;;37.97;21.50;;;;;;;6.35;100.00;97736.38;5015070;28;20408;-81
2024/02/28 09:18:01;;;;;;;33.15;18.95;;;;;;;6.37;100.00;97742.25;5015908;28;20407;-82
2024/02/28 09:20:28;;;;;;;34.63;19.48;;;;;;;6.42;100.00;97745.03;5014982;28;20777;-81
2024/02/28 09:22:54;;;;;;;38.70;21.45;;;;;;;6.45;100.00;97736.72;5014231;28;20408;-80
2024/02/28 09:25:21;;;;;;;37.95;21.05;;;;;;;6.47;100.00;97742.53;5014984;28;20431;-81
2024/02/28 09:27:47;;;;;;;37.30;20.90;;;;;;;6.51;100.00;97732.41;5023614;28;20423;-83
2024/02/28 09:30:14;;;;;;;34.10;19.25;;;;;;;6.56;100.00;97736.00;5024605;28;20397;-82
2024/02/28 09:32:41;;;;;;;31.27;17.77;;;;;;;6.63;100.00;97725.41;5023591;28;20928;-82
2024/02/28 09:35:10;;;;;;;30.10;18.20;;;;;;;6.72;100.00;97725.94;5022602;28;20409;-83
2024/02/28 09:37:37;;;;;;;32.60;18.63;;;;;;;6.80;100.00;97726.44;5022219;28;20400;-84
2024/02/28 09:40:08;;;;;;;29.38;17.30;;;;;;;6.87;100.00;97735.06;5022977;28;20401;-83
2024/02/28 09:42:34;;;;;;;37.55;21.02;;;;;;;6.92;100.00;97729.16;5023707;28;20401;-84
2024/02/28 09:45:04;;;;;;;36.23;19.97;;;;;;;7.00;100.00;97731.50;5024586;28;20416;-82
2024/02/28 09:47:30;;;;;;;40.47;22.77;;;;;;;7.09;100.00;97726.75;5023902;28;20409;-82
2024/02/28 09:50:01;;;;;;;38.30;21.77;;;;;;;7.08;100.00;97731.19;5022836;28;20401;-83
2024/02/28 09:52:28;;;;;;;32.15;19.08;;;;;;;7.13;100.00;97734.00;5023661;28;20413;-83
2024/02/28 09:54:54;;;;;;;30.48;17.95;;;;;;;7.18;100.00;97733.31;5023563;28;20404;-84
2024/02/28 09:57:28;;;;;;;27.08;15.52;;;;;;;7.25;100.00;97734.03;5023622;28;20405;-84
2024/02/28 09:59:55;;;;;;;25.48;15.07;;;;;;;7.35;100.00;97739.59;5025439;28;20544;-83
2024/02/28 10:02:29;;;;;;;25.15;14.07;;;;;;;7.45;100.00;97731.97;5026172;28;20408;-84
2024/02/28 10:05:00;;;;;;;21.92;13.52;;;;;;;7.55;100.00;97739.34;5027337;28;20435;-82
2024/02/28 10:07:28;;;;;;;24.37;14.80;;;;;;;7.61;100.00;97736.63;5025179;28;20400;-82
2024/02/28 10:09:54;;;;;;;25.00;14.53;;;;;;;7.68;100.00;97736.53;5027922;28;20574;-83
2024/02/28 10:12:21;;;;;;;24.08;14.50;;;;;;;7.71;100.00;97739.53;5025519;28;20409;-81
2024/02/28 10:14:50;;;;;;;25.20;15.23;;;;;;;7.73;100.00;97737.47;5024531;28;20404;-83
2024/02/28 10:17:17;;;;;;;32.38;17.23;;;;;;;7.72;100.00;97735.88;5022998;28;20405;-82
2024/02/28 10:19:43;;;;;;;26.83;15.57;;;;;;;7.69;100.00;97743.41;5023809;28;20405;-83
2024/02/28 10:22:09;;;;;;;25.75;15.65;;;;;;;7.65;100.00;97742.25;5020987;28;20468;-83
2024/02/28 10:24:37;;;;;;;21.67;14.13;;;;;;;7.64;100.00;97746.72;5020364;28;20397;-81
2024/02/28 10:27:04;;;;;;;25.83;14.82;;;;;;;7.64;100.00;97748.56;5020188;28;20443;-83
2024/02/28 10:29:34;;;;;;;25.63;14.82;;;;;;;7.66;100.00;97754.41;5019688;28;20393;-83
2024/02/28 10:32:01;;;;;;;24.77;14.77;;;;;;;7.64;100.00;97749.34;5021610;28;20432;-82
2024/02/28 10:34:27;;;;;;;19.87;12.40;;;;;;;7.66;100.00;97765.75;5021897;28;20397;-81
2024/02/28 10:36:54;;;;;;;20.70;12.52;;;;;;;7.66;100.00;97757.84;5021037;28;20458;-84
2024/02/28 10:39:21;;;;;;;20.92;12.07;;;;;;;7.65;100.00;97769.41;5021722;28;20408;-82
2024/02/28 10:41:52;;;;;;;19.97;11.97;;;;;;;7.67;100.00;97766.53;5024817;28;20393;-84
2024/02/28 10:44:20;;;;;;;24.13;15.13;;;;;;;7.68;100.00;97781.31;5023225;28;20477;-83
2024/02/28 10:46:50;;;;;;;35.17;19.50;;;;;;;7.72;100.00;97767.50;5020296;28;20859;-83
2024/02/28 10:49:16;;;;;;;29.67;17.67;;;;;;;7.67;100.00;97772.59;5022713;28;20764;-82
2024/02/28 10:51:48;;;;;;;23.42;14.13;;;;;;;7.69;100.00;97781.09;5026172;28;20401;-83
2024/02/28 10:54:15;;;;;;;22.40;13.48;;;;;;;7.72;100.00;97787.75;5024681;28;20416;-84
2024/02/28 10:56:42;;;;;;;20.02;12.93;;;;;;;7.75;100.00;97788.09;5024336;28;20435;-81
2024/02/28 10:59:12;;;;;;;20.25;11.45;;;;;;;7.78;100.00;97789.50;5022979;28;20408;-83
2024/02/28 11:01:43;;;;;;;16.23;10.70;;;;;;;7.77;100.00;97788.69;5021985;28;20405;-83
2024/02/28 11:04:10;;;;;;;16.20;10.50;;;;;;;7.78;100.00;97789.50;5018492;28;20405;-84
2024/02/28 11:06:49;;;;;;;18.60;12.13;;;;;;;7.78;100.00;97789.50;5018840;28;20486;-82
2024/02/28 11:09:22;;;;;;;27.45;14.68;;;;;;;7.79;100.00;97788.47;5020175;28;20435;-82
2024/02/28 11:11:48;;;;;;;26.20;15.43;;;;;;;7.76;100.00;97786.28;5019084;28;20454;-81
2024/02/28 11:14:17;;;;;;;21.95;14.00;;;;;;;7.75;100.00;97782.84;5016959;28;20488;-80
2024/02/28 11:16:46;;;;;;;21.85;13.13;;;;;;;7.76;100.00;97796.81;5021926;28;20457;-82
2024/02/28 11:19:23;;;;;;;23.90;13.60;;;;;;;7.77;100.00;97801.06;5024125;28;20415;-83
2024/02/28 11:21:54;;;;;;;22.33;13.23;;;;;;;7.74;100.00;97802.31;5024397;28;20419;-81
2024/02/28 11:24:24;;;;;;;21.85;12.60;;;;;;;7.73;100.00;97802.56;5021025;28;20405;-83
2024/02/28 11:26:51;;;;;;;22.02;12.88;;;;;;;7.73;100.00;97803.34;5014856;28;20425;-81
2024/02/28 11:29:23;;;;;;;22.37;13.87;;;;;;;7.73;100.00;97806.00;5023043;28;20397;-81
2024/02/28 11:31:49;;;;;;;24.10;15.10;;;;;;;7.75;100.00;97803.13;5022599;28;20392;-83
2024/02/28 11:34:15;;;;;;;28.90;16.63;;;;;;;7.72;100.00;97807.00;5025039;28;20400;-80
2024/02/28 11:36:42;;;;;;;34.70;20.25;;;;;;;7.70;100.00;97795.06;5023559;28;20405;-80
2024/02/28 11:39:08;;;;;;;30.33;17.27;;;;;;;7.69;100.00;97801.38;5020126;28;20407;-82
2024/02/28 11:41:34;;;;;;;26.42;15.63;;;;;;;7.67;100.00;97798.94;5019109;28;20405;-82
2024/02/28 11:44:01;;;;;;;33.47;20.00;;;;;;;7.67;100.00;97798.16;5020847;28;20405;-82
2024/02/28 11:46:28;;;;;;;28.38;17.38;;;;;;;7.64;100.00;97798.59;5021325;28;20476;-83
2024/02/28 11:48:55;;;;;;;30.73;17.42;;;;;;;7.63;100.00;97807.53;5022004;28;20397;-85
2024/02/28 11:51:21;;;;;;;30.85;17.67;;;;;;;7.61;100.00;97801.69;5021127;28;20393;-82
2024/02/28 11:53:47;;;;;;;28.92;17.15;;;;;;;7.59;100.00;97801.13;5019616;28;20425;-82
2024/02/28 11:56:17;;;;;;;34.67;19.08;;;;;;;7.63;100.00;97794.38;5018110;28;20404;-81
2024/02/28 11:58:50;;;;;;;27.83;17.00;;;;;;;7.61;100.00;97799.03;5019373;28;20853;-81
2024/02/28 12:01:16;;;;;;;32.38;18.67;;;;;;;7.63;100.00;97797.00;5019358;28;20459;-81
2024/02/28 12:03:46;;;;;;;24.08;14.88;;;;;;;7.64;100.00;97791.50;5018829;28;20464;-81
2024/02/28 12:06:13;;;;;;;24.13;13.60;;;;;;;7.69;100.00;97793.47;5018475;28;20475;-83
2024/02/28 12:08:39;;;;;;;18.95;12.02;;;;;;;7.72;100.00;97793.03;5019447;28;20813;-81
2024/02/28 12:11:10;;;;;;;27.80;16.65;;;;;;;7.70;100.00;97797.72;5018345;28;20392;-82
2024/02/28 12:13:37;;;;;;;30.63;17.98;;;;;;;7.68;100.00;97789.22;5018829;28;20423;-81
2024/02/28 12:16:04;;;;;;;27.73;15.87;;;;;;;7.65;100.00;97792.31;5018515;28;20486;-81
2024/02/28 12:18:31;;;;;;;29.85;17.92;;;;;;;7.64;100.00;97786.25;5017343;28;20397;-84
2024/02/28 12:20:58;;;;;;;35.22;20.23;;;;;;;7.71;100.00;97781.69;5021078;28;20385;-84
2024/02/28 12:23:25;;;;;;;34.20;18.85;;;;;;;7.68;100.00;97782.13;5030498;28;20397;-83
2024/02/28 12:25:51;;;;;;;27.42;16.25;;;;;;;7.60;100.00;97785.06;5031400;28;20428;-82
2024/02/28 12:28:17;;;;;;;26.10;15.68;;;;;;;7.57;100.00;97776.81;5030422;28;20400;-83
2024/02/28 12:30:43;;;;;;;24.52;14.48;;;;;;;7.57;100.00;97777.63;5022380;28;20491;-85
2024/02/28 12:33:11;;;;;;;26.70;13.65;;;;;;;7.62;100.00;97779.56;5018784;28;20471;-82
2024/02/28 12:35:37;;;;;;;22.17;13.20;;;;;;;7.64;100.00;97775.69;5017853;28;20419;-83
2024/02/28 12:38:05;;;;;;;21.27;13.00;;;;;;;7.67;100.00;97779.69;5016095;28;20407;-84
2024/02/28 12:40:31;;;;;;;20.30;11.77;;;;;;;7.68;100.00;97778.69;5014767;28;20397;-83
2024/02/28 12:42:57;;;;;;;29.50;16.25;;;;;;;7.67;100.00;97779.69;5007574;28;20776;-82
2024/02/28 12:45:23;;;;;;;24.98;14.98;;;;;;;7.67;100.00;97774.44;5011097;28;20457;-83
2024/02/28 12:47:50;;;;;;;25.92;15.02;;;;;;;7.65;100.00;97779.94;5012423;28;20468;-81
2024/02/28 12:50:16;;;;;;;22.67;13.55;;;;;;;7.67;100.00;97769.16;5008136;28;20465;-81
2024/02/28 12:52:42;;;;;;;32.38;18.40;;;;;;;7.65;100.00;97774.69;5010691;28;20877;-81
2024/02/28 12:55:09;;;;;;;31.05;19.02;;;;;;;7.62;100.00;97769.84;5009779;28;20427;-82
2024/02/28 12:57:36;;;;;;;37.07;20.10;;;;;;;7.71;100.00;97759.81;5006777;28;20412;-81
2024/02/28 13:00:02;;;;;;;33.58;18.73;;;;;;;7.56;100.00;97764.66;5009014;28;20757;-84
2024/02/28 13:02:28;;;;;;;34.75;18.80;;;;;;;7.42;100.00;97758.75;5009701;28;20398;-84
2024/02/28 13:04:55;;;;;;;28.40;16.53;;;;;;;7.35;100.00;97758.03;5011800;28;20434;-84
2024/02/28 13:07:22;;;;;;;27.92;15.90;;;;;;;7.34;100.00;97756.44;5019865;28;20439;-82
2024/02/28 13:09:49;;;;;;;25.25;14.98;;;;;;;7.37;100.00;97759.41;5016292;28;20868;-82
2024/02/28 13:12:17;;;;;;;28.00;16.45;;;;;;;7.45;100.00;97763.56;5013714;28;20433;-83
2024/02/28 13:14:43;;;;;;;25.80;15.65;;;;;;;7.47;100.00;97766.78;5016192;28;20405;-84
2024/02/28 13:17:09;;;;;;;26.42;15.00;;;;;;;7.51;100.00;97767.97;5021492;28;20463;-83
2024/02/28 13:19:36;;;;;;;25.63;15.07;;;;;;;7.52;100.00;97761.66;5019233;28;20408;-83
2024/02/28 13:22:02;;;;;;;22.08;13.63;;;;;;;7.58;100.00;97762.63;5019537;28;20428;-83
2024/02/28 13:24:28;;;;;;;23.70;14.63;;;;;;;7.61;100.00;97770.88;5015114;28;20762;-85
2024/02/28 13:26:54;;;;;;;21.63;13.57;;;;;;;7.63;100.00;97766.19;5018039;28;20433;-82
2024/02/28 13:29:22;;;;;;;21.88;13.27;;;;;;;7.67;100.00;97766.53;5015055;28;21101;-83
2024/02/28 13:31:48;;;;;;;25.67;14.10;;;;;;;7.67;100.00;97766.53;5019817;28;20508;-82
2024/02/28 13:34:14;;;;;;;20.70;12.93;;;;;;;7.67;100.00;97767.34;5023661;28;20396;-83
2024/02/28 13:36:43;;;;;;;22.58;13.63;;;;;;;7.68;100.00;97773.41;5017815;28;20915;-83
2024/02/28 13:39:11;;;;;;;23.30;13.05;;;;;;;7.67;100.00;97767.34;5019284;28;20520;-83
2024/02/28 13:41:38;;;;;;;23.50;13.43;;;;;;;7.66;100.00;97765.75;5023751;28;20443;-81
2024/02/28 13:44:04;;;;;;;20.50;12.10;;;;;;;7.66;100.00;97770.22;5022062;28;20483;-81
2024/02/28 13:46:32;;;;;;;26.40;14.18;;;;;;;7.67;100.00;97759.44;5019647;28;20480;-79
2024/02/28 13:48:58;;;;;;;25.48;14.68;;;;;;;7.65;100.00;97753.59;5023009;28;20392;-82
2024/02/28 13:51:24;;;;;;;22.50;13.70;;;;;;;7.65;100.00;97745.69;5011707;28;20401;-83
2024/02/28 13:53:53;;;;;;;29.25;15.85;;;;;;;7.69;100.00;97746.03;5020183;28;20430;-83
2024/02/28 13:56:19;;;;;;;32.43;17.80;;;;;;;7.66;100.00;97733.34;5007488;28;20410;-84
2024/02/28 13:58:46;;;;;;;26.33;15.45;;;;;;;7.63;100.00;97733.75;5010782;28;20399;-82
2024/02/28 14:01:13;;;;;;;26.47;15.53;;;;;;;7.62;100.00;97740.06;5004539;28;20736;-83
2024/02/28 14:03:40;;;;;;;22.92;13.68;;;;;;;7.62;100.00;97735.59;5013099;28;20410;-81
2024/02/28 14:06:06;;;;;;;27.27;14.95;;;;;;;7.64;100.00;97746.72;5022589;28;20420;-82
2024/02/28 14:08:32;;;;;;;29.20;17.23;;;;;;;7.61;100.00;97741.06;5023199;28;20408;-82
2024/02/28 14:10:58;;;;;;;29.92;17.23;;;;;;;7.49;100.00;97746.31;5009041;28;20421;-79
2024/02/28 14:13:25;;;;;;;28.33;15.90;;;;;;;7.46;100.00;97751.22;5008391;28;20422;-82
2024/02/28 14:15:53;;;;;;;24.40;14.27;;;;;;;7.44;100.00;97759.34;5016496;28;20416;-82
2024/02/28 14:18:19;;;;;;;24.73;14.15;;;;;;;7.44;100.00;97759.34;5010963;28;20437;-83
2024/02/28 14:20:47;;;;;;;27.38;15.20;;;;;;;7.41;100.00;97759.78;5024958;28;20412;-82
2024/02/28 14:23:13;;;;;;;24.30;14.32;;;;;;;7.42;100.00;97757.97;5026870;28;20473;-84
2024/02/28 14:25:40;;;;;;;20.20;11.83;;;;;;;7.44;100.00;97761.19;5016039;28;20463;-83
2024/02/28 14:28:06;;;;;;;26.30;15.23;;;;;;;7.43;100.00;97757.75;5019603;28;20406;-81
2024/02/28 14:30:33;;;;;;;23.92;13.80;;;;;;;7.45;100.00;97765.41;5005748;28;20415;-79